Bruce, South Dakota
Current Conditions -  °F | °C
As of 10:15 AM on Monday 24 Nov 2014 (Local Time) from KMDS Reporting Station
Light Snow Light Snow  
Wind Chill: -2°   Ceiling: 1600
Heat Index: 16°   Visibility: 10mi
Dew Point: 14°   Wind: 23mph
Humidity: 93%   Direction: 320°NW
Pressure: 29.66"   Gusts: 35mph
Location:  44.44°N, 96.89°W
Report Text: KMDS 241615Z AUTO 32020G30KT 10SM -SN OVC016 M09/M10 A2966 RMK AO2 P0001
Loading
Personal Weather Stations






























Interactive Weather Map New forecast layout! Learn more

10-Day Weather Forecast

Advertisements
Track Severe Weather on mobile